createdAt,value
2019-03-22T00:02:27.177Z,9.33
2019-03-22T00:04:55.845Z,8.90
2019-03-22T00:07:24.685Z,10.30
2019-03-22T00:09:53.303Z,8.93
2019-03-22T00:12:21.868Z,9.00
2019-03-22T00:14:50.537Z,9.37
2019-03-22T00:17:20.580Z,9.30
2019-03-22T00:19:49.729Z,7.87
2019-03-22T00:22:18.402Z,7.83
2019-03-22T00:24:47.102Z,9.13
2019-03-22T00:27:16.858Z,12.20
2019-03-22T00:29:45.679Z,8.73
2019-03-22T00:32:14.326Z,8.13
2019-03-22T00:34:42.923Z,9.23
2019-03-22T00:37:11.513Z,8.33
2019-03-22T00:39:40.090Z,9.87
2019-03-22T00:42:08.760Z,8.47
2019-03-22T00:44:37.365Z,10.07
2019-03-22T00:47:06.083Z,10.00
2019-03-22T00:49:34.852Z,8.83
2019-03-22T00:52:03.442Z,8.40
2019-03-22T00:54:32.551Z,9.63
2019-03-22T00:57:01.173Z,8.47
2019-03-22T00:59:29.922Z,11.37
2019-03-22T01:45:14.002Z,9.87
2019-03-22T01:47:46.651Z,8.77
2019-03-22T01:50:17.077Z,8.90
2019-03-22T01:52:45.950Z,10.33
2019-03-22T01:55:16.257Z,7.40
2019-03-22T01:57:53.100Z,9.57
2019-03-22T02:00:18.375Z,7.63
2019-03-22T02:02:47.174Z,9.43
2019-03-22T02:05:15.976Z,8.33
2019-03-22T02:07:44.933Z,7.33
2019-03-22T02:31:54.223Z,9.83
2019-03-22T02:34:24.053Z,8.30
2019-03-22T02:36:54.989Z,10.77
2019-03-22T02:39:25.552Z,11.10
2019-03-22T02:41:54.191Z,9.67
2019-03-22T02:44:23.858Z,9.33
2019-03-22T02:46:52.625Z,7.17
2019-03-22T02:49:21.326Z,9.07
2019-03-22T02:51:49.951Z,7.00
2019-03-22T02:54:18.662Z,9.30
2019-03-22T02:56:47.591Z,10.20
2019-03-22T02:59:16.183Z,7.67
2019-03-22T03:01:44.847Z,10.73
2019-03-22T03:04:13.471Z,10.17
2019-03-22T03:06:42.208Z,7.00
2019-03-22T03:33:37.134Z,6.50
2019-03-22T03:36:05.864Z,7.83
2019-03-22T03:38:34.510Z,8.33
2019-03-22T03:41:03.266Z,7.37
2019-03-22T03:43:31.894Z,8.53
2019-03-22T03:46:00.622Z,7.27
2019-03-22T03:48:29.229Z,9.47
2019-03-22T03:56:40.853Z,7.30
2019-03-22T04:26:18.961Z,7.13
2019-03-22T04:28:47.557Z,8.60
2019-03-22T04:33:58.538Z,7.77
2019-03-22T04:36:27.270Z,6.37
2019-03-22T04:41:32.018Z,6.43
2019-03-22T04:44:00.768Z,8.33
2019-03-22T04:46:29.768Z,6.13
2019-03-22T04:48:58.974Z,7.10
2019-03-22T05:06:00.251Z,9.83
2019-03-22T06:03:06.602Z,9.13
2019-03-22T06:08:26.147Z,7.73
2019-03-22T06:10:54.788Z,8.87
2019-03-22T06:13:23.433Z,5.83
2019-03-22T06:15:52.090Z,10.33
2019-03-22T06:18:20.792Z,9.53
2019-03-22T06:20:49.600Z,10.77
2019-03-22T06:23:19.061Z,10.90
2019-03-22T06:25:47.686Z,9.17
2019-03-22T06:33:53.669Z,8.73
2019-03-22T06:36:24.182Z,7.87
2019-03-22T06:38:52.845Z,8.20
2019-03-22T06:41:21.604Z,7.33
2019-03-22T06:43:50.174Z,7.87
2019-03-22T06:46:18.757Z,5.97
2019-03-22T07:08:50.615Z,7.77
2019-03-22T07:11:19.168Z,6.83
2019-03-22T07:13:47.871Z,8.53
2019-03-22T07:16:16.447Z,6.67
2019-03-22T07:18:45.067Z,6.50
2019-03-22T07:21:13.658Z,8.03
2019-03-22T07:23:42.306Z,7.20
2019-03-22T07:26:10.900Z,8.00
2019-03-22T07:28:39.496Z,7.13
2019-03-22T07:31:08.149Z,5.80
2019-03-22T07:33:36.685Z,4.90
2019-03-22T07:36:05.333Z,6.10
2019-03-22T07:38:33.845Z,6.80
2019-03-22T07:41:02.404Z,5.77
2019-03-22T07:43:30.968Z,5.87
2019-03-22T07:46:17.498Z,8.43
2019-03-22T07:48:46.072Z,6.17
2019-03-22T07:51:14.608Z,7.30
2019-03-22T07:53:43.172Z,7.13
2019-03-22T07:56:11.721Z,8.27
2019-03-22T07:58:40.305Z,8.27
2019-03-22T08:01:08.834Z,8.67
2019-03-22T08:03:37.407Z,8.20
2019-03-22T08:06:05.977Z,10.10
2019-03-22T08:08:34.638Z,8.33
2019-03-22T08:11:03.237Z,7.87
2019-03-22T08:13:31.794Z,7.63
2019-03-22T08:16:00.374Z,9.50
2019-03-22T08:18:28.968Z,9.97
2019-03-22T08:20:57.666Z,7.10
2019-03-22T08:23:26.315Z,8.60
2019-03-22T08:25:54.902Z,7.60
2019-03-22T08:28:23.492Z,8.00
2019-03-22T08:30:52.072Z,6.93
2019-03-22T08:33:20.616Z,7.67
2019-03-22T08:35:49.200Z,7.07
2019-03-22T08:38:17.815Z,7.63
2019-03-22T08:40:46.397Z,9.07
2019-03-22T08:43:14.967Z,7.20
2019-03-22T08:45:43.533Z,8.97
2019-03-22T08:48:12.153Z,7.40
2019-03-22T08:50:40.733Z,8.00
2019-03-22T08:53:09.351Z,7.90
2019-03-22T08:55:37.962Z,8.83
2019-03-22T08:58:06.473Z,8.97
2019-03-22T09:00:39.661Z,8.27
2019-03-22T09:03:05.362Z,7.90
2019-03-22T09:05:33.972Z,10.10
2019-03-22T09:08:02.547Z,9.33
2019-03-22T09:10:31.066Z,9.13
2019-03-22T09:12:59.604Z,9.27
2019-03-22T09:15:40.175Z,9.17
2019-03-22T09:17:59.546Z,7.93
2019-03-22T09:20:28.188Z,9.47
2019-03-22T09:22:56.745Z,10.03
2019-03-22T09:25:25.253Z,9.47
2019-03-22T09:27:53.836Z,9.30
2019-03-22T09:30:22.328Z,10.00
2019-03-22T09:32:50.900Z,11.00
2019-03-22T09:35:19.444Z,8.20
2019-03-22T09:37:48.005Z,11.60
2019-03-22T09:40:16.715Z,8.30
2019-03-22T09:42:45.618Z,8.73
2019-03-22T09:45:14.674Z,11.23
2019-03-22T09:47:43.328Z,8.63
2019-03-22T09:50:12.954Z,7.83
2019-03-22T09:52:41.558Z,9.33
2019-03-22T09:55:13.682Z,8.23
2019-03-22T09:57:40.437Z,8.23
2019-03-22T10:00:12.451Z,8.70
2019-03-22T10:02:40.978Z,11.97
2019-03-22T10:05:09.491Z,9.13
2019-03-22T10:07:38.035Z,8.80
2019-03-22T10:10:07.245Z,7.30
2019-03-22T10:12:35.746Z,8.43
2019-03-22T10:15:06.885Z,7.97
2019-03-22T10:17:35.450Z,7.90
2019-03-22T10:20:06.280Z,7.93
2019-03-22T10:22:34.920Z,8.53
2019-03-22T10:25:04.875Z,8.07
2019-03-22T10:27:33.491Z,8.77
2019-03-22T10:30:02.133Z,7.73
2019-03-22T10:32:30.631Z,7.67
2019-03-22T10:34:59.227Z,7.93
2019-03-22T10:37:27.759Z,9.10
2019-03-22T10:39:56.313Z,7.63
2019-03-22T10:42:24.780Z,6.93
2019-03-22T10:44:53.287Z,7.07
2019-03-22T10:47:21.929Z,8.03
2019-03-22T10:49:50.610Z,11.13
2019-03-22T10:52:19.094Z,8.00
2019-03-22T10:54:47.745Z,8.53
2019-03-22T10:57:16.317Z,9.80
2019-03-22T10:59:44.912Z,7.80
2019-03-22T11:02:13.530Z,7.53
2019-03-22T11:04:42.107Z,7.73
2019-03-22T11:07:10.659Z,7.57
2019-03-22T11:10:05.868Z,8.60
2019-03-22T11:12:40.945Z,7.23
2019-03-22T11:15:13.715Z,8.80
2019-03-22T11:17:42.415Z,8.73
2019-03-22T11:20:25.262Z,9.87
2019-03-22T11:22:53.911Z,8.10
2019-03-22T11:25:22.524Z,8.67
2019-03-22T11:27:51.184Z,9.17
2019-03-22T11:30:20.135Z,8.90
2019-03-22T11:33:12.396Z,8.43
2019-03-22T11:35:52.304Z,10.20
2019-03-22T11:38:23.026Z,9.13
2019-03-22T11:41:00.618Z,7.93
2019-03-22T11:43:29.882Z,8.30
2019-03-22T11:45:58.593Z,8.67
2019-03-22T11:48:27.686Z,9.10
2019-03-22T11:51:10.957Z,8.87
2019-03-22T11:53:47.223Z,7.33
2019-03-22T11:56:15.793Z,6.90
2019-03-22T11:59:02.200Z,6.07
2019-03-22T12:01:44.362Z,6.27
2019-03-22T12:04:20.581Z,5.57
2019-03-22T12:07:08.468Z,5.37
2019-03-22T12:09:51.606Z,5.03
2019-03-22T12:12:45.532Z,6.70
2019-03-22T12:17:53.300Z,4.70
2019-03-22T12:20:24.479Z,5.57
2019-03-22T12:22:53.115Z,6.60
2019-03-22T12:25:23.225Z,6.37
2019-03-22T12:27:52.033Z,4.97
2019-03-22T12:30:20.766Z,6.07
2019-03-22T12:32:49.482Z,6.20
2019-03-22T12:35:18.659Z,4.87
2019-03-22T12:37:47.477Z,5.60
2019-03-22T12:40:24.479Z,7.33
2019-03-22T12:44:21.195Z,6.10
2019-03-22T12:46:14.242Z,6.23
2019-03-22T12:48:42.763Z,6.27
2019-03-22T12:51:21.150Z,6.47
2019-03-22T12:53:56.638Z,7.47
2019-03-22T12:56:34.713Z,6.93
2019-03-22T12:59:03.324Z,8.40
2019-03-22T13:01:36.549Z,7.33
2019-03-22T13:04:05.265Z,6.37
2019-03-22T13:06:35.550Z,7.47
2019-03-22T13:09:24.985Z,5.97
2019-03-22T13:11:53.588Z,8.80
2019-03-22T13:14:33.681Z,6.90
2019-03-22T13:17:04.080Z,8.43
2019-03-22T13:19:33.328Z,7.50
2019-03-22T13:22:13.273Z,10.67
2019-03-22T13:24:41.848Z,8.93
2019-03-22T13:27:10.516Z,6.60
2019-03-22T13:32:39.910Z,5.87
2019-03-22T13:38:16.703Z,7.43
2019-03-22T13:44:44.607Z,9.17
2019-03-22T13:47:23.659Z,7.43
2019-03-22T13:50:17.042Z,7.60
2019-03-22T13:55:56.339Z,5.83
2019-03-22T14:01:15.792Z,8.13
2019-03-22T14:06:44.417Z,12.03
2019-03-22T14:09:12.897Z,7.43
2019-03-22T14:11:41.457Z,6.20
2019-03-22T14:14:09.995Z,6.17
2019-03-22T14:16:38.560Z,6.57
2019-03-22T14:19:07.028Z,6.73
2019-03-22T14:21:35.517Z,7.60
2019-03-22T14:24:04.051Z,11.87
2019-03-22T14:26:32.545Z,8.73
2019-03-22T14:29:01.016Z,7.27
2019-03-22T14:31:29.508Z,11.50
2019-03-22T14:33:57.989Z,8.23
2019-03-22T14:36:26.548Z,8.50
2019-03-22T14:38:55.093Z,9.67
2019-03-22T14:41:23.656Z,8.37
2019-03-22T14:43:52.200Z,8.33
2019-03-22T14:46:20.697Z,8.40
2019-03-22T14:48:49.711Z,7.10
2019-03-22T14:51:18.226Z,11.53
2019-03-22T14:53:46.689Z,9.20
2019-03-22T14:56:15.185Z,7.40
2019-03-22T14:58:43.645Z,9.10
2019-03-22T15:01:12.146Z,7.17
2019-03-22T15:03:40.604Z,7.87
2019-03-22T15:06:09.101Z,6.27
2019-03-22T15:08:37.568Z,7.60
2019-03-22T15:14:00.550Z,7.93
2019-03-22T15:19:13.369Z,6.47
2019-03-22T15:24:32.143Z,6.30
2019-03-22T15:27:06.107Z,5.37
2019-03-22T15:29:53.436Z,6.40
2019-03-22T15:35:49.890Z,6.20
2019-03-22T15:38:25.983Z,5.70
2019-03-22T15:40:54.597Z,5.67
2019-03-22T15:44:00.401Z,13.20
2019-03-22T15:46:30.573Z,7.47
2019-03-22T15:48:59.082Z,7.90
2019-03-22T15:51:27.693Z,7.20
2019-03-22T15:53:56.268Z,5.30
2019-03-22T15:56:24.759Z,5.20
2019-03-22T15:58:53.353Z,10.87
2019-03-22T16:01:22.088Z,6.37
2019-03-22T16:03:50.778Z,5.83
2019-03-22T16:06:38.476Z,9.00
2019-03-22T16:09:08.279Z,6.77
2019-03-22T16:11:37.002Z,5.70
2019-03-22T16:14:05.734Z,5.80
2019-03-22T16:16:34.326Z,5.93
2019-03-22T16:19:02.949Z,4.90
2019-03-22T16:21:31.519Z,4.87
2019-03-22T16:24:00.127Z,6.97
2019-03-22T16:26:28.696Z,5.97
2019-03-22T16:28:57.336Z,6.23
2019-03-22T16:31:27.587Z,4.93
2019-03-22T16:33:59.213Z,5.23
2019-03-22T16:36:28.696Z,7.00
2019-03-22T16:38:59.288Z,6.37
2019-03-22T16:41:27.833Z,4.67
2019-03-22T16:43:56.451Z,5.10
2019-03-22T16:46:25.002Z,5.80
2019-03-22T16:48:53.604Z,5.93
2019-03-22T16:51:22.153Z,5.97
2019-03-22T16:53:50.775Z,4.90
2019-03-22T16:56:19.342Z,5.27
2019-03-22T16:58:48.020Z,4.67
2019-03-22T17:01:16.582Z,7.67
2019-03-22T17:03:45.174Z,5.73
2019-03-22T17:06:13.804Z,5.63
2019-03-22T17:08:42.380Z,5.53
2019-03-22T17:11:10.884Z,4.53
2019-03-22T17:13:39.468Z,7.03
2019-03-22T17:16:08.060Z,6.23
2019-03-22T17:18:36.681Z,4.07
2019-03-22T17:21:05.339Z,3.90
2019-03-22T17:23:33.969Z,4.43
2019-03-22T17:26:02.624Z,6.67
2019-03-22T17:28:31.239Z,4.70
2019-03-22T17:30:59.850Z,8.87
2019-03-22T17:33:28.440Z,4.67
2019-03-22T17:35:56.991Z,3.60
2019-03-22T17:38:25.675Z,5.77
2019-03-22T17:40:54.235Z,4.60
2019-03-22T17:43:22.814Z,5.47
2019-03-22T17:45:51.366Z,5.43
2019-03-22T17:48:19.995Z,3.13
2019-03-22T17:50:48.560Z,4.80
2019-03-22T17:53:17.158Z,3.70
2019-03-22T17:55:46.175Z,3.87
2019-03-22T17:58:14.775Z,3.67
2019-03-22T18:00:43.805Z,5.90
2019-03-22T18:03:12.390Z,5.03
2019-03-22T18:05:41.028Z,2.97
2019-03-22T18:08:09.661Z,4.10
2019-03-22T18:10:38.276Z,3.50
2019-03-22T18:13:06.922Z,3.10
2019-03-22T18:15:35.529Z,2.80
2019-03-22T18:18:04.249Z,4.13
2019-03-22T18:20:32.846Z,4.30
2019-03-22T18:23:01.574Z,4.07
2019-03-22T18:25:30.159Z,4.60
2019-03-22T18:27:58.786Z,3.80
2019-03-22T18:30:27.594Z,3.43
2019-03-22T18:32:56.195Z,3.60
2019-03-22T18:35:24.909Z,3.20
2019-03-22T18:37:55.082Z,3.57
2019-03-22T18:40:34.442Z,3.53
2019-03-22T18:43:11.981Z,3.20
2019-03-22T18:45:40.692Z,3.77
2019-03-22T18:48:13.532Z,3.93
2019-03-22T18:53:58.054Z,5.60
2019-03-22T18:59:15.541Z,7.37
2019-03-22T19:01:44.008Z,4.50
2019-03-22T19:04:12.501Z,5.23
2019-03-22T19:06:40.964Z,3.47
2019-03-22T19:09:09.460Z,5.80
2019-03-22T19:11:37.935Z,4.27
2019-03-22T19:14:06.497Z,4.73
2019-03-22T19:16:35.040Z,3.43
2019-03-22T19:19:03.537Z,4.73
2019-03-22T19:21:32.093Z,7.93
2019-03-22T19:24:03.332Z,6.33
2019-03-22T19:26:31.889Z,4.67
2019-03-22T19:29:01.937Z,4.57
2019-03-22T19:31:30.466Z,4.30
2019-03-22T19:34:00.629Z,6.93
2019-03-22T19:36:29.101Z,4.17
2019-03-22T19:38:57.660Z,7.17
2019-03-22T19:41:26.185Z,4.53
2019-03-22T19:43:56.313Z,6.70
2019-03-22T19:46:24.969Z,5.93
2019-03-22T19:48:54.444Z,6.70
2019-03-22T19:51:40.637Z,5.70
2019-03-22T19:57:35.099Z,5.60
2019-03-22T20:28:12.473Z,6.63
2019-03-22T20:30:41.066Z,8.23
2019-03-22T20:33:09.680Z,7.33
2019-03-22T20:35:39.921Z,6.87
2019-03-22T20:38:08.475Z,8.53
2019-03-22T20:40:37.544Z,7.10
2019-03-22T20:43:07.213Z,7.10
2019-03-22T20:45:37.314Z,7.90
2019-03-22T20:48:05.853Z,6.27
2019-03-22T20:50:35.949Z,5.17
2019-03-22T20:53:04.681Z,8.13
2019-03-22T20:55:33.256Z,7.77
2019-03-22T20:58:01.797Z,9.27
2019-03-22T21:00:30.305Z,13.30
2019-03-22T21:02:58.780Z,6.40
2019-03-22T21:05:27.461Z,7.77
2019-03-22T21:07:56.009Z,7.77
2019-03-22T21:10:24.630Z,7.47
2019-03-22T21:12:53.173Z,5.97
2019-03-22T21:15:24.622Z,7.37
2019-03-22T21:17:51.950Z,7.20
2019-03-22T21:20:20.529Z,8.03
2019-03-22T21:22:49.085Z,6.70
2019-03-22T21:25:17.733Z,8.30
2019-03-22T21:27:46.285Z,6.87
2019-03-22T21:30:15.787Z,5.60
2019-03-22T21:32:45.482Z,5.33
2019-03-22T21:35:22.316Z,6.70
2019-03-22T21:37:44.653Z,8.73
2019-03-22T21:40:13.376Z,7.27
2019-03-22T21:42:41.946Z,8.00
2019-03-22T21:45:11.261Z,7.77
2019-03-22T21:47:39.880Z,7.57
2019-03-22T21:50:09.918Z,7.37
2019-03-22T21:52:38.415Z,7.13
2019-03-22T21:55:08.517Z,7.23
2019-03-22T21:57:37.140Z,6.67
2019-03-22T22:00:08.137Z,8.80
2019-03-22T22:02:36.819Z,7.30
2019-03-22T22:05:06.986Z,7.00
2019-03-22T22:07:35.602Z,6.73
2019-03-22T22:10:07.320Z,9.93
2019-03-22T22:12:35.913Z,7.00
2019-03-22T22:15:08.111Z,6.20
2019-03-22T22:17:39.319Z,6.43
2019-03-22T22:20:08.525Z,7.57
2019-03-22T22:22:37.726Z,5.43
2019-03-22T22:25:07.677Z,6.17
2019-03-22T22:27:36.338Z,7.33
2019-03-22T22:30:11.943Z,8.33
2019-03-22T22:32:40.511Z,7.13
2019-03-22T22:35:09.432Z,6.23
2019-03-22T22:37:38.036Z,5.77
2019-03-22T22:40:11.266Z,6.90
2019-03-22T22:42:39.889Z,7.10
2019-03-22T22:45:09.924Z,6.73
2019-03-22T22:47:38.596Z,7.70
2019-03-22T22:50:08.968Z,5.57
2019-03-22T22:52:37.577Z,6.03
2019-03-22T22:55:07.745Z,8.23
2019-03-22T22:57:36.383Z,8.40
2019-03-22T23:00:13.669Z,5.27
2019-03-22T23:02:42.718Z,6.40
2019-03-22T23:05:11.481Z,6.80
2019-03-22T23:42:45.030Z,6.87
2019-03-22T23:45:13.891Z,7.10
2019-03-22T23:47:44.125Z,6.17
2019-03-22T23:50:14.230Z,6.23
2019-03-22T23:52:44.017Z,7.57
2019-03-22T23:55:13.033Z,7.53
2019-03-22T23:57:41.569Z,8.00
